CheckWX is a tool to help pilots better visualize weather data.  It is not intended as a substitute for an official pre-flight weather briefing.

05:06:16 UTC

KSKA TAF
Fairchild AFB Airport
Spokane, Washington, USA
TAF AMD KSKA 220400Z 2204/2309 20012KT 9999 SCT007 BKN010 620122 QNH2984INS BECMG 2204/2205 20009KT 9999 SCT006 SCT010 QNH2986INS BECMG 2209/2210 22012KT 9999 BKN004 OVC010 600152 QNH2992INS BECMG 2219/2220 20009KT 4800 -SNRA BR BKN005 OVC010 620109 QNH3006INS TX02/2221Z TNM02/2213Z

Jan-22@
04:00 UTC

Jan-22 @ 04:00 UTC

Jan-23@
09:00 UTC

Jan-23 @ 09:00 UTC

TAF AMD KSKA 220400Z 2204/2309 20012KT 9999 SCT007 BKN010 620122 QNH2984INS
Wind
  • 200° at 12 KTS
Cloud Levels
  • Scattered at 700' AGL
  • Broken at 1,000' AGL
Icing
Light icing in cloud expected at 1,200' AGL extending to 3,200' AGL

Jan-22@
04:00 UTC

Jan-22 @ 04:00 UTC

Jan-22@
09:00 UTC

Jan-22 @ 09:00 UTC

BECMG 2204/2205 20009KT 9999 SCT006 SCT010 QNH2986INS

Becoming

Becoming Conditions expected by Wed, Jan 22, 2020 @ 05:00 UTC

Wind
  • 200° at 9 KTS
Cloud Levels
  • Scattered at 600' AGL
  • Scattered at 1,000' AGL

Jan-22@
09:00 UTC

Jan-22 @ 09:00 UTC

Jan-22@
19:00 UTC

Jan-22 @ 19:00 UTC

BECMG 2209/2210 22012KT 9999 BKN004 OVC010 600152 QNH2992INS

Becoming

Becoming Conditions expected by Wed, Jan 22, 2020 @ 10:00 UTC

Wind
  • 220° at 12 KTS
Cloud Levels
  • Broken at 400' AGL
  • Overcast at 1,000' AGL
Icing

Jan-22@
19:00 UTC

Jan-22 @ 19:00 UTC

Jan-23@
09:00 UTC

Jan-23 @ 09:00 UTC

BECMG 2219/2220 20009KT 4800 -SNRA BR BKN005 OVC010 620109 QNH3006INS TX02/2221Z TNM02/2213Z

Becoming

Becoming Conditions expected by Wed, Jan 22, 2020 @ 20:00 UTC

Wind
  • 200° at 9 KTS
Conditions
Light Snow, Light Rain, Mist
Cloud Levels
  • Broken at 500' AGL
  • Overcast at 1,000' AGL
Icing
Light icing in cloud expected at 1,000' AGL extending to 10,000' AGL